createdAt,value
2022-09-24T00:01:34.501Z,9.93
2022-09-24T00:04:04.639Z,9.75
2022-09-24T00:06:37.721Z,13.55
2022-09-24T00:09:04.527Z,10.25
2022-09-24T00:11:32.009Z,10.93
2022-09-24T00:13:59.392Z,14.35
2022-09-24T00:16:30.379Z,12.68
2022-09-24T00:18:58.368Z,10.57
2022-09-24T00:21:28.042Z,11.85
2022-09-24T00:23:57.250Z,18.90
2022-09-24T00:26:42.648Z,11.80
2022-09-24T00:29:10.400Z,14.23
2022-09-24T00:31:37.161Z,9.57
2022-09-24T00:34:04.044Z,12.02
2022-09-24T00:36:30.940Z,10.57
2022-09-24T00:38:59.246Z,10.60
2022-09-24T00:41:29.401Z,10.75
2022-09-24T00:43:56.029Z,17.65
2022-09-24T00:46:34.249Z,18.67
2022-09-24T00:49:06.194Z,12.40
2022-09-24T00:51:33.632Z,17.27
2022-09-24T00:54:05.701Z,17.77
2022-09-24T00:56:36.488Z,17.75
2022-09-24T00:59:04.435Z,18.02
2022-09-24T01:01:30.832Z,13.18
2022-09-24T01:03:59.208Z,15.63
2022-09-24T01:06:26.188Z,13.10
2022-09-24T01:08:54.860Z,18.00
2022-09-24T01:11:36.339Z,13.82
2022-09-24T01:14:05.547Z,14.25
2022-09-24T01:17:02.895Z,16.30
2022-09-24T01:19:35.173Z,15.90
2022-09-24T01:22:26.455Z,15.25
2022-09-24T01:25:01.675Z,11.57
2022-09-24T01:27:49.533Z,16.50
2022-09-24T01:30:15.939Z,15.68
2022-09-24T01:32:49.505Z,17.95
2022-09-24T01:35:22.148Z,13.75
2022-09-24T01:38:01.193Z,15.68
2022-09-24T01:40:30.178Z,15.73
2022-09-24T01:42:59.066Z,15.52
2022-09-24T01:45:31.802Z,19.00
2022-09-24T01:48:01.208Z,17.73
2022-09-24T01:50:30.978Z,17.73
2022-09-24T01:53:31.750Z,18.10
2022-09-24T01:56:05.258Z,14.27
2022-09-24T01:58:58.667Z,17.55
2022-09-24T02:01:34.998Z,16.67
2022-09-24T02:04:09.155Z,20.73
2022-09-24T02:06:41.741Z,18.23
2022-09-24T02:09:38.408Z,14.88
2022-09-24T02:12:26.472Z,16.00
2022-09-24T02:15:02.877Z,16.23
2022-09-24T02:17:33.561Z,18.17
2022-09-24T02:20:02.785Z,19.52
2022-09-24T02:22:30.983Z,17.55
2022-09-24T02:25:00.662Z,19.77
2022-09-24T02:27:30.564Z,18.25
2022-09-24T02:29:58.730Z,20.63
2022-09-24T02:32:27.946Z,16.17
2022-09-24T02:35:01.247Z,16.88
2022-09-24T02:37:27.566Z,20.75
2022-09-24T02:39:53.875Z,18.92
2022-09-24T02:42:21.757Z,15.63
2022-09-24T02:44:48.333Z,14.52
2022-09-24T02:47:14.648Z,16.55
2022-09-24T02:49:40.986Z,17.83
2022-09-24T02:52:07.382Z,19.92
2022-09-24T02:54:34.234Z,17.92
2022-09-24T02:57:00.548Z,21.70
2022-09-24T02:59:26.837Z,20.35
2022-09-24T03:01:53.286Z,20.15
2022-09-24T03:04:19.734Z,18.00
2022-09-24T03:06:46.032Z,21.85
2022-09-24T03:09:13.094Z,20.20
2022-09-24T03:11:39.937Z,19.23
2022-09-24T03:14:06.366Z,16.75
2022-09-24T03:16:33.542Z,19.33
2022-09-24T03:19:00.189Z,18.15
2022-09-24T03:21:26.552Z,18.55
2022-09-24T03:23:52.853Z,18.25
2022-09-24T03:26:19.269Z,17.42
2022-09-24T03:28:45.879Z,18.00
2022-09-24T03:31:12.978Z,20.40
2022-09-24T03:33:41.687Z,18.85
2022-09-24T03:41:14.584Z,18.80
2022-09-24T03:43:41.449Z,20.10
2022-09-24T03:46:09.421Z,19.67
2022-09-24T03:48:37.138Z,17.67
2022-09-24T03:51:05.900Z,18.17
2022-09-24T03:53:33.023Z,20.45
2022-09-24T03:56:02.261Z,22.40
2022-09-24T03:58:31.140Z,23.75
2022-09-24T04:00:57.888Z,21.50
2022-09-24T04:03:24.992Z,21.30
2022-09-24T04:05:51.687Z,16.98
2022-09-24T04:08:19.781Z,23.10
2022-09-24T04:10:46.897Z,19.80
2022-09-24T04:13:13.703Z,24.63
2022-09-24T04:15:40.099Z,22.67
2022-09-24T04:18:06.780Z,24.15
2022-09-24T04:20:33.839Z,21.83
2022-09-24T04:23:01.094Z,28.45
2022-09-24T04:25:32.801Z,23.23
2022-09-24T04:28:01.669Z,21.70
2022-09-24T04:30:29.549Z,28.77
2022-09-24T04:32:56.596Z,21.08
2022-09-24T04:35:23.454Z,21.23
2022-09-24T04:37:50.208Z,21.42
2022-09-24T04:40:17.148Z,21.25
2022-09-24T04:42:47.245Z,21.13
2022-09-24T04:45:17.673Z,21.42
2022-09-24T04:47:44.521Z,26.17
2022-09-24T04:50:11.348Z,20.17
2022-09-24T04:52:38.838Z,23.80
2022-09-24T04:55:06.310Z,23.17
2022-09-24T04:57:34.957Z,24.92
2022-09-24T05:02:28.005Z,17.80
2022-09-24T05:04:54.353Z,25.52
2022-09-24T05:07:20.664Z,25.85
2022-09-24T05:09:47.014Z,23.50
2022-09-24T05:12:14.110Z,23.17
2022-09-24T05:14:40.407Z,26.02
2022-09-24T05:17:06.758Z,22.33
2022-09-24T05:19:33.053Z,28.20
2022-09-24T05:21:59.342Z,25.42
2022-09-24T05:24:25.631Z,26.15
2022-09-24T05:27:10.308Z,24.13
2022-09-24T05:29:41.184Z,22.20
2022-09-24T05:32:13.270Z,20.05
2022-09-24T05:34:41.401Z,21.75
2022-09-24T05:37:07.808Z,25.60
2022-09-24T05:39:34.544Z,33.20
2022-09-24T05:42:04.112Z,24.70
2022-09-24T05:44:31.763Z,22.00
2022-09-24T05:46:58.150Z,22.52
2022-09-24T05:49:24.509Z,20.45
2022-09-24T05:51:51.477Z,19.67
2022-09-24T05:54:18.284Z,24.73
2022-09-24T05:56:45.516Z,24.08
2022-09-24T05:59:12.200Z,23.95
2022-09-24T06:01:40.130Z,20.60
2022-09-24T06:04:17.597Z,21.70
2022-09-24T06:06:44.119Z,20.38
2022-09-24T06:09:10.875Z,23.27
2022-09-24T06:11:40.745Z,17.70
2022-09-24T06:14:08.453Z,21.25
2022-09-24T06:16:35.077Z,26.15
2022-09-24T06:19:01.714Z,22.77
2022-09-24T06:21:28.266Z,39.97
2022-09-24T06:23:54.619Z,27.08
2022-09-24T06:26:21.264Z,35.50
2022-09-24T06:28:47.559Z,24.98
2022-09-24T06:31:13.945Z,33.65
2022-09-24T06:33:40.915Z,22.55
2022-09-24T06:36:07.562Z,23.67
2022-09-24T06:38:35.244Z,19.58
2022-09-24T06:41:03.659Z,25.90
2022-09-24T06:43:31.192Z,23.55
2022-09-24T06:45:58.791Z,20.15
2022-09-24T06:48:26.480Z,40.47
2022-09-24T06:50:53.502Z,26.07
2022-09-24T06:53:20.621Z,30.17
2022-09-24T06:55:47.152Z,22.88
2022-09-24T06:58:22.014Z,21.45
2022-09-24T07:00:53.826Z,23.92
2022-09-24T07:03:20.998Z,18.83
2022-09-24T07:05:47.349Z,25.00
2022-09-24T07:08:13.654Z,22.63
2022-09-24T07:10:50.752Z,21.27
2022-09-24T07:13:17.088Z,20.23
2022-09-24T07:15:44.329Z,25.27
2022-09-24T07:18:11.960Z,24.67
2022-09-24T07:20:38.448Z,23.58
2022-09-24T07:23:06.397Z,19.65
2022-09-24T07:25:33.465Z,24.20
2022-09-24T07:28:08.532Z,24.23
2022-09-24T07:30:36.456Z,22.00
2022-09-24T07:33:03.338Z,24.38
2022-09-24T07:35:30.056Z,31.20
2022-09-24T07:38:00.940Z,23.23
2022-09-24T07:40:28.212Z,22.67
2022-09-24T07:42:55.209Z,38.17
2022-09-24T07:45:23.018Z,26.58
2022-09-24T07:48:00.574Z,24.65
2022-09-24T07:50:28.202Z,23.33
2022-09-24T07:52:55.199Z,20.92
2022-09-24T07:55:22.191Z,30.02
2022-09-24T07:57:55.404Z,21.35
2022-09-24T08:00:23.359Z,24.00
2022-09-24T08:02:50.344Z,27.00
2022-09-24T08:05:17.928Z,24.65
2022-09-24T08:07:52.494Z,24.95
2022-09-24T08:10:19.281Z,23.00
2022-09-24T08:12:45.780Z,25.05
2022-09-24T08:15:12.091Z,30.65
2022-09-24T08:17:38.596Z,28.75
2022-09-24T08:20:05.470Z,27.65
2022-09-24T08:22:31.827Z,29.55
2022-09-24T08:24:58.134Z,28.50
2022-09-24T08:27:25.157Z,27.65
2022-09-24T08:29:52.079Z,31.33
2022-09-24T08:32:18.497Z,31.45
2022-09-24T08:34:45.286Z,25.73
2022-09-24T08:37:13.377Z,31.67
2022-09-24T08:39:40.091Z,31.17
2022-09-24T08:42:13.678Z,31.63
2022-09-24T08:45:02.647Z,34.97
2022-09-24T08:47:45.780Z,31.92
2022-09-24T08:50:24.741Z,29.23
2022-09-24T08:52:58.783Z,31.13
2022-09-24T08:55:38.070Z,29.90
2022-09-24T08:58:10.517Z,29.90
2022-09-24T09:00:46.273Z,33.95
2022-09-24T09:03:25.316Z,36.35
2022-09-24T09:06:33.000Z,31.92
2022-09-24T09:09:12.005Z,27.35
2022-09-24T09:11:40.577Z,29.00
2022-09-24T09:17:02.761Z,24.48
2022-09-24T09:19:34.263Z,28.42
2022-09-24T09:22:17.305Z,28.00
2022-09-24T09:24:48.845Z,27.05
2022-09-24T09:27:17.162Z,29.48
2022-09-24T09:29:51.417Z,30.30
2022-09-24T09:32:40.832Z,27.02
2022-09-24T09:35:22.101Z,24.85
2022-09-24T09:38:23.344Z,25.15
2022-09-24T09:41:04.958Z,23.08
2022-09-24T09:43:31.317Z,22.52
2022-09-24T09:46:15.890Z,23.25
2022-09-24T09:48:51.303Z,30.55
2022-09-24T09:51:25.953Z,22.88
2022-09-24T09:54:00.390Z,30.13
2022-09-24T09:56:30.012Z,28.48
2022-09-24T09:59:11.513Z,23.65
2022-09-24T10:01:43.257Z,22.15
2022-09-24T10:04:34.500Z,21.23
2022-09-24T10:07:16.027Z,20.08
2022-09-24T10:09:43.812Z,20.58
2022-09-24T10:12:15.901Z,25.48
2022-09-24T10:14:42.862Z,22.38
2022-09-24T10:17:18.509Z,22.42
2022-09-24T10:19:50.651Z,24.30
2022-09-24T10:22:27.610Z,21.48
2022-09-24T10:24:59.715Z,20.65
2022-09-24T10:27:36.188Z,22.05
2022-09-24T10:30:31.224Z,20.02
2022-09-24T10:32:59.255Z,19.35
2022-09-24T10:35:28.805Z,25.83
2022-09-24T10:37:58.414Z,17.95
2022-09-24T10:40:30.715Z,22.50
2022-09-24T10:42:59.621Z,21.80
2022-09-24T10:46:05.078Z,31.20
2022-09-24T10:49:01.346Z,24.42
2022-09-24T10:51:48.530Z,25.40
2022-09-24T10:54:40.946Z,21.73
2022-09-24T10:57:34.065Z,27.02
2022-09-24T11:00:09.414Z,25.83
2022-09-24T11:03:08.542Z,23.00
2022-09-24T11:05:45.451Z,21.58
2022-09-24T11:08:23.185Z,20.92
2022-09-24T11:11:40.034Z,23.73
2022-09-24T11:14:35.721Z,20.30
2022-09-24T11:17:35.995Z,19.25
2022-09-24T11:20:22.262Z,17.23
2022-09-24T11:23:01.780Z,23.30
2022-09-24T11:25:39.531Z,18.27
2022-09-24T11:28:41.990Z,17.63
2022-09-24T11:31:30.867Z,21.83
2022-09-24T11:34:06.276Z,20.45
2022-09-24T11:36:55.653Z,17.67
2022-09-24T11:39:24.937Z,18.95
2022-09-24T11:42:09.971Z,17.95
2022-09-24T11:45:15.643Z,21.23
2022-09-24T11:47:41.862Z,18.52
2022-09-24T11:50:26.150Z,17.05
2022-09-24T11:53:14.017Z,20.27
2022-09-24T11:55:45.754Z,19.80
2022-09-24T11:58:30.770Z,21.45
2022-09-24T12:01:25.204Z,20.60
2022-09-24T12:04:30.883Z,17.77
2022-09-24T12:07:12.776Z,21.38
2022-09-24T12:09:45.100Z,20.58
2022-09-24T12:12:20.675Z,22.23
2022-09-24T12:15:05.034Z,20.58
2022-09-24T12:18:03.605Z,23.33
2022-09-24T12:20:31.875Z,22.67
2022-09-24T12:23:12.140Z,23.90
2022-09-24T12:25:45.318Z,23.17
2022-09-24T12:28:14.844Z,27.33
2022-09-24T12:31:09.978Z,27.38
2022-09-24T12:33:57.180Z,28.33
2022-09-24T12:36:57.161Z,25.23
2022-09-24T12:39:29.074Z,26.73
2022-09-24T12:42:01.604Z,29.02
2022-09-24T12:44:42.649Z,27.00
2022-09-24T12:47:24.349Z,28.35
2022-09-24T12:49:57.877Z,30.77
2022-09-24T12:52:39.841Z,33.92
2022-09-24T12:55:20.505Z,39.47
2022-09-24T12:57:56.106Z,33.03
2022-09-24T13:00:34.761Z,35.75
2022-09-24T13:03:02.930Z,24.70
2022-09-24T13:05:45.935Z,25.65
2022-09-24T13:08:16.785Z,28.08
2022-09-24T13:10:55.673Z,33.55
2022-09-24T13:13:27.964Z,28.73
2022-09-24T13:16:06.535Z,30.33
2022-09-24T13:18:37.226Z,32.88
2022-09-24T13:21:18.418Z,30.90
2022-09-24T13:23:47.508Z,26.63
2022-09-24T13:26:28.726Z,30.10
2022-09-24T13:28:58.505Z,28.92
2022-09-24T13:31:35.266Z,28.10
2022-09-24T13:34:12.900Z,31.88
2022-09-24T13:36:54.615Z,25.00
2022-09-24T13:39:44.126Z,25.38
2022-09-24T13:42:23.126Z,23.40
2022-09-24T13:44:52.925Z,30.90
2022-09-24T13:47:45.383Z,24.60
2022-09-24T13:50:24.096Z,22.20
2022-09-24T13:53:01.280Z,29.25
2022-09-24T13:55:38.149Z,25.63
2022-09-24T13:58:04.446Z,26.30
2022-09-24T14:00:32.269Z,26.15
2022-09-24T14:03:20.509Z,29.20
2022-09-24T14:05:47.055Z,23.00
2022-09-24T14:08:15.557Z,28.88
2022-09-24T14:10:42.590Z,24.60
2022-09-24T14:13:08.861Z,24.08
2022-09-24T14:15:36.230Z,24.40
2022-09-24T14:18:02.749Z,23.27
2022-09-24T14:20:35.051Z,22.13
2022-09-24T14:23:04.613Z,27.92
2022-09-24T14:25:34.932Z,24.27
2022-09-24T14:28:02.955Z,25.98
2022-09-24T14:30:32.393Z,24.27
2022-09-24T14:33:15.790Z,23.13
2022-09-24T14:35:46.933Z,23.30
2022-09-24T14:38:29.995Z,21.55
2022-09-24T14:41:05.913Z,27.60
2022-09-24T14:43:41.027Z,26.88
2022-09-24T14:46:18.928Z,22.25
2022-09-24T14:48:45.305Z,22.20
2022-09-24T14:51:26.730Z,22.60
2022-09-24T14:54:19.907Z,25.38
2022-09-24T14:56:46.319Z,19.40
2022-09-24T14:59:26.412Z,22.08
2022-09-24T15:02:15.743Z,21.98
2022-09-24T15:04:47.077Z,23.13
2022-09-24T15:07:21.357Z,23.02
2022-09-24T15:09:53.037Z,18.42
2022-09-24T15:12:26.443Z,19.42
2022-09-24T15:15:24.969Z,18.00
2022-09-24T15:17:51.297Z,19.67
2022-09-24T15:20:17.619Z,17.73
2022-09-24T15:22:46.497Z,21.27
2022-09-24T15:25:14.490Z,19.52
2022-09-24T15:27:44.395Z,18.25
2022-09-24T15:30:18.421Z,21.02
2022-09-24T15:32:45.067Z,15.80
2022-09-24T15:35:14.927Z,21.27
2022-09-24T15:37:41.925Z,19.38
2022-09-24T15:40:15.364Z,16.70
2022-09-24T15:42:41.693Z,18.73
2022-09-24T15:45:34.282Z,17.50
2022-09-24T15:48:00.692Z,18.80
2022-09-24T15:50:27.005Z,19.50
2022-09-24T15:52:57.221Z,21.20
2022-09-24T15:55:24.035Z,25.40
2022-09-24T15:57:50.401Z,21.63
2022-09-24T16:00:18.822Z,20.88
2022-09-24T16:02:50.953Z,22.83
2022-09-24T16:05:18.078Z,22.58
2022-09-24T16:07:44.714Z,19.05
2022-09-24T16:10:13.368Z,23.48
2022-09-24T16:15:06.971Z,22.38
2022-09-24T16:17:33.323Z,25.33
2022-09-24T16:19:59.854Z,22.60
2022-09-24T16:22:26.209Z,29.00
2022-09-24T16:24:53.980Z,31.38
2022-09-24T16:27:20.551Z,29.48
2022-09-24T16:29:46.849Z,30.02
2022-09-24T16:32:13.805Z,28.63
2022-09-24T16:34:40.799Z,30.83
2022-09-24T16:37:08.021Z,29.65
2022-09-24T16:39:34.445Z,27.05
2022-09-24T16:42:01.171Z,28.88
2022-09-24T16:44:27.462Z,27.20
2022-09-24T16:46:53.907Z,24.20
2022-09-24T16:49:22.617Z,23.83
2022-09-24T16:54:15.263Z,22.38
2022-09-24T16:56:41.620Z,24.10
2022-09-24T16:59:10.105Z,31.55
2022-09-24T17:04:02.878Z,22.60
2022-09-24T17:06:30.950Z,27.92
2022-09-24T17:09:16.081Z,25.23
2022-09-24T17:11:42.633Z,28.00
2022-09-24T17:14:12.102Z,29.27
2022-09-24T17:16:39.385Z,23.17
2022-09-24T17:19:07.898Z,28.40
2022-09-24T17:21:35.586Z,24.95
2022-09-24T17:24:02.412Z,29.03
2022-09-24T17:26:28.839Z,28.85
2022-09-24T17:28:55.348Z,26.65
2022-09-24T17:31:24.199Z,28.55
2022-09-24T17:34:09.541Z,25.73
2022-09-24T17:36:37.124Z,28.33
2022-09-24T17:39:05.341Z,26.23
2022-09-24T17:41:31.670Z,22.50
2022-09-24T17:44:00.920Z,24.58
2022-09-24T17:46:29.931Z,26.45
2022-09-24T17:48:58.627Z,26.15
2022-09-24T17:53:53.954Z,26.57
2022-09-24T17:56:22.972Z,31.57
2022-09-24T17:58:49.758Z,29.30
2022-09-24T18:01:19.439Z,30.80
2022-09-24T18:03:46.519Z,28.80
2022-09-24T18:06:14.718Z,27.77
2022-09-24T18:08:45.850Z,27.60
2022-09-24T18:11:15.494Z,28.33
2022-09-24T18:13:41.836Z,40.15
2022-09-24T18:16:09.791Z,29.27
2022-09-24T18:18:36.778Z,33.45
2022-09-24T18:21:08.096Z,30.85
2022-09-24T18:23:35.109Z,34.83
2022-09-24T18:26:10.457Z,29.92
2022-09-24T18:28:39.633Z,31.67
2022-09-24T18:31:08.345Z,32.70
2022-09-24T18:33:36.531Z,30.23
2022-09-24T18:36:04.664Z,30.00
2022-09-24T18:38:31.750Z,29.30
2022-09-24T18:40:59.418Z,28.70
2022-09-24T18:43:26.275Z,27.17
2022-09-24T18:45:52.682Z,33.05
2022-09-24T18:48:19.413Z,29.13
2022-09-24T18:50:45.838Z,31.58
2022-09-24T18:53:12.416Z,32.25
2022-09-24T18:55:40.612Z,32.75
2022-09-24T18:58:07.924Z,35.17
2022-09-24T19:00:54.724Z,36.13
2022-09-24T19:03:22.062Z,39.20
2022-09-24T19:05:51.461Z,40.00
2022-09-24T19:08:20.074Z,46.05
2022-09-24T19:10:48.427Z,39.05
2022-09-24T19:13:16.065Z,35.25
2022-09-24T19:15:43.228Z,32.37
2022-09-24T19:18:16.968Z,30.70
2022-09-24T19:20:45.583Z,31.85
2022-09-24T19:25:40.241Z,24.67
2022-09-24T19:28:08.866Z,26.65
2022-09-24T19:33:15.634Z,27.35
2022-09-24T19:35:47.100Z,24.77
2022-09-24T19:38:16.535Z,22.98
2022-09-24T19:40:43.057Z,21.27
2022-09-24T19:43:09.501Z,24.63
2022-09-24T19:45:37.157Z,27.30
2022-09-24T19:48:03.546Z,21.58
2022-09-24T19:50:34.177Z,26.02
2022-09-24T19:53:00.545Z,24.45
2022-09-24T19:55:28.783Z,21.95
2022-09-24T19:57:56.265Z,25.98
2022-09-24T20:00:24.893Z,21.83
2022-09-24T20:05:18.597Z,29.15
2022-09-24T20:07:45.719Z,25.50
2022-09-24T20:10:12.047Z,24.88
2022-09-24T20:12:39.174Z,26.25
2022-09-24T20:15:06.556Z,25.23
2022-09-24T20:17:32.874Z,29.75
2022-09-24T20:20:00.957Z,36.55
2022-09-24T20:22:27.260Z,25.55
2022-09-24T20:24:53.570Z,23.30
2022-09-24T20:27:38.541Z,25.88
2022-09-24T20:30:05.307Z,24.00
2022-09-24T20:32:31.790Z,24.80
2022-09-24T20:35:01.016Z,23.40
2022-09-24T20:37:28.092Z,26.48
2022-09-24T20:39:54.446Z,26.35
2022-09-24T20:42:20.796Z,23.45
2022-09-24T20:44:48.822Z,25.17
2022-09-24T20:47:15.491Z,24.25
2022-09-24T20:49:41.846Z,25.50
2022-09-24T20:52:08.209Z,25.58
2022-09-24T20:54:34.604Z,25.88
2022-09-24T20:57:01.847Z,26.02
2022-09-24T20:59:28.160Z,29.02
2022-09-24T21:01:54.593Z,25.27
2022-09-24T21:04:21.104Z,28.67
2022-09-24T21:06:47.935Z,25.10
2022-09-24T21:09:14.625Z,30.27
2022-09-24T21:11:41.916Z,24.20
2022-09-24T21:14:10.846Z,28.52
2022-09-24T21:16:37.353Z,27.40
2022-09-24T21:19:05.617Z,29.50
2022-09-24T21:21:35.081Z,26.88
2022-09-24T21:24:01.803Z,26.27
2022-09-24T21:26:30.401Z,28.13
2022-09-24T21:31:49.333Z,27.70
2022-09-24T21:34:17.503Z,29.77
2022-09-24T21:36:45.577Z,25.33
2022-09-24T21:39:17.528Z,27.70
2022-09-24T21:41:45.434Z,23.58
2022-09-24T21:44:14.340Z,27.67
2022-09-24T21:46:42.880Z,29.35
2022-09-24T21:51:36.704Z,25.13
2022-09-24T21:54:06.483Z,26.65
2022-09-24T21:56:35.275Z,24.08
2022-09-24T21:59:02.106Z,24.58
2022-09-24T22:01:31.297Z,25.80
2022-09-24T22:03:59.356Z,24.65
2022-09-24T22:06:28.713Z,26.42
2022-09-24T22:08:57.842Z,26.13
2022-09-24T22:11:26.229Z,25.05
2022-09-24T22:13:53.406Z,24.55
2022-09-24T22:16:20.118Z,27.48
2022-09-24T22:18:46.459Z,24.33
2022-09-24T22:21:14.494Z,24.13
2022-09-24T22:23:41.380Z,25.65
2022-09-24T22:26:09.756Z,27.98
2022-09-24T22:28:37.773Z,23.30
2022-09-24T22:31:07.095Z,26.83
2022-09-24T22:33:52.379Z,27.90
2022-09-24T22:36:19.262Z,26.05
2022-09-24T22:38:45.855Z,25.98
2022-09-24T22:41:12.289Z,27.80
2022-09-24T22:43:39.626Z,26.95
2022-09-24T22:46:08.680Z,25.85
2022-09-24T22:48:35.695Z,29.13
2022-09-24T22:51:03.128Z,30.75
2022-09-24T22:53:32.494Z,29.70
2022-09-24T22:56:11.277Z,26.98
2022-09-24T22:58:41.123Z,26.88
2022-09-24T23:01:09.646Z,26.70
2022-09-24T23:06:05.889Z,24.92
2022-09-24T23:08:33.681Z,26.17
2022-09-24T23:11:24.482Z,24.65
2022-09-24T23:13:54.778Z,25.23
2022-09-24T23:16:24.476Z,24.77
2022-09-24T23:18:53.733Z,26.75
2022-09-24T23:21:22.202Z,29.27
2022-09-24T23:23:53.851Z,31.92
2022-09-24T23:26:21.222Z,27.75
2022-09-24T23:28:50.941Z,27.13
2022-09-24T23:31:20.814Z,26.67
2022-09-24T23:33:48.117Z,25.88
2022-09-24T23:36:15.130Z,25.98
2022-09-24T23:38:42.352Z,27.48
2022-09-24T23:41:10.829Z,29.88
2022-09-24T23:43:37.262Z,31.70
2022-09-24T23:46:04.182Z,30.85
2022-09-24T23:48:31.438Z,28.58
2022-09-24T23:50:58.289Z,30.92
2022-09-24T23:53:25.732Z,28.38
2022-09-24T23:55:53.055Z,27.05
2022-09-24T23:58:20.659Z,32.40
